Time;durP1;ratioP1;P1;durP2;ratioP2;P2;SDS_P1;SDS_P2;PMS_P1;PMS_P2;Temp;Humidity;BMP_temperature;BMP_pressure;BME280_temperature;BME280_humidity;BME280_pressure;Samples;Min_cycle;Max_cycle;Signal;HPM_P1;HPM_P2
2022/03/22 00:00:40;;;;;;;63.03;35.65;;;;;;;4.45;92.85;103180.25;4986329;28;20042;-72
2022/03/22 00:03:05;;;;;;;61.75;35.88;;;;;;;4.48;92.49;103175.94;4987564;28;20030;-72
2022/03/22 00:05:32;;;;;;;63.33;35.83;;;;;;;4.48;93.10;103172.47;4987010;28;20025;-72
2022/03/22 00:08:00;;;;;;;67.45;37.00;;;;;;;4.46;92.84;103182.91;4987531;28;20584;-72
2022/03/22 00:10:27;;;;;;;66.65;37.90;;;;;;;4.44;92.70;103179.38;4987374;28;20037;-72
2022/03/22 00:12:53;;;;;;;61.50;36.72;;;;;;;4.43;92.76;103176.72;4986625;28;20156;-71
2022/03/22 00:15:19;;;;;;;56.80;34.63;;;;;;;4.40;92.65;103171.44;4985911;28;20038;-71
2022/03/22 00:17:45;;;;;;;63.13;36.38;;;;;;;4.35;93.03;103174.84;4992062;28;20049;-71
2022/03/22 00:20:11;;;;;;;61.58;35.92;;;;;;;4.32;92.79;103176.53;4988198;28;20029;-71
2022/03/22 00:22:38;;;;;;;65.53;37.75;;;;;;;4.29;92.78;103174.75;5006031;28;20034;-71
2022/03/22 00:25:05;;;;;;;65.60;36.63;;;;;;;4.27;93.09;103172.94;4981003;28;20029;-72
2022/03/22 00:27:50;;;;;;;64.90;36.25;;;;;;;4.24;92.94;103165.91;5005500;28;20119;-72
2022/03/22 00:30:27;;;;;;;63.63;37.05;;;;;;;4.21;93.22;103171.09;4988388;28;20034;-71
2022/03/22 00:32:55;;;;;;;63.67;37.85;;;;;;;4.18;93.32;103177.16;4959886;28;20068;-71
2022/03/22 00:35:23;;;;;;;61.08;37.20;;;;;;;4.17;93.85;103175.41;4970237;28;21417;-71
2022/03/22 00:37:50;;;;;;;64.47;37.42;;;;;;;4.17;93.72;103169.25;5003579;28;20034;-71
2022/03/22 00:40:19;;;;;;;70.03;38.40;;;;;;;4.14;93.68;103170.09;5004816;28;20034;-71
2022/03/22 00:42:46;;;;;;;67.07;39.50;;;;;;;4.15;94.34;103181.47;4988504;28;20043;-71
2022/03/22 00:45:16;;;;;;;65.97;39.92;;;;;;;4.14;94.30;103163.97;4986807;28;20276;-71
2022/03/22 00:47:43;;;;;;;66.60;38.55;;;;;;;4.15;94.66;103170.97;5010435;28;20081;-72
2022/03/22 00:50:09;;;;;;;63.75;38.70;;;;;;;4.15;94.99;103173.59;4989911;28;20794;-72
2022/03/22 00:52:36;;;;;;;72.35;40.08;;;;;;;4.18;94.96;103171.94;5009270;28;20160;-71
2022/03/22 00:55:05;;;;;;;70.40;38.90;;;;;;;4.20;95.04;103172.81;5009493;28;20061;-71
2022/03/22 00:57:33;;;;;;;67.88;39.80;;;;;;;4.19;94.81;103173.69;5009343;28;20030;-72
2022/03/22 01:00:03;;;;;;;66.13;37.53;;;;;;;4.15;95.03;103171.84;4996144;28;20481;-71
2022/03/22 01:02:29;;;;;;;61.92;36.80;;;;;;;4.12;95.18;103182.28;4989645;28;20041;-71
2022/03/22 01:04:57;;;;;;;70.85;38.50;;;;;;;4.07;95.28;103176.97;5008621;28;20503;-72
2022/03/22 01:07:23;;;;;;;62.33;38.13;;;;;;;4.04;94.89;103166.41;5007675;28;20040;-71
2022/03/22 01:09:49;;;;;;;66.97;39.38;;;;;;;4.02;95.22;103172.47;4990675;28;20034;-71
2022/03/22 01:12:15;;;;;;;68.07;39.70;;;;;;;4.00;95.32;103174.19;4988243;28;20029;-71
2022/03/22 01:14:42;;;;;;;69.55;41.10;;;;;;;3.97;95.31;103166.28;5005894;28;20034;-72
2022/03/22 01:17:08;;;;;;;70.65;40.08;;;;;;;3.97;95.42;103166.28;5008431;28;20033;-71
2022/03/22 01:19:35;;;;;;;65.85;40.17;;;;;;;3.97;95.77;103169.75;4995320;28;20048;-71
2022/03/22 01:22:05;;;;;;;73.45;41.00;;;;;;;3.97;96.01;103166.28;4989371;28;20029;-72
2022/03/22 01:24:31;;;;;;;69.85;40.70;;;;;;;3.95;95.76;103163.63;5008788;28;20083;-71
2022/03/22 01:26:57;;;;;;;71.20;41.13;;;;;;;3.93;96.00;103168.81;5008052;28;20033;-72
2022/03/22 01:29:23;;;;;;;73.75;41.03;;;;;;;3.93;96.22;103163.56;4988480;28;20056;-72
2022/03/22 01:31:49;;;;;;;70.95;40.92;;;;;;;3.94;96.46;103172.34;5010106;28;20111;-71
2022/03/22 01:34:15;;;;;;;76.28;41.38;;;;;;;3.92;96.71;103169.69;5007861;28;21013;-71
2022/03/22 01:36:41;;;;;;;70.75;42.78;;;;;;;3.92;96.82;103168.81;5009445;28;20032;-71
2022/03/22 01:39:07;;;;;;;73.72;43.65;;;;;;;3.93;96.79;103163.56;5009235;28;20048;-72
2022/03/22 01:41:34;;;;;;;72.95;44.13;;;;;;;3.96;96.79;103165.38;5009056;28;20030;-72
2022/03/22 01:44:00;;;;;;;73.90;41.72;;;;;;;3.97;97.28;103169.75;5009184;28;20034;-71
2022/03/22 01:46:27;;;;;;;75.03;42.33;;;;;;;3.98;97.25;103163.66;5008924;28;20029;-71
2022/03/22 01:48:53;;;;;;;76.18;43.28;;;;;;;4.00;97.18;103163.69;5009892;28;20033;-72
2022/03/22 01:51:23;;;;;;;79.32;43.55;;;;;;;4.02;97.27;103164.59;5008897;28;20474;-72
2022/03/22 01:53:49;;;;;;;71.78;41.63;;;;;;;4.04;97.59;103166.41;5008329;28;20037;-72
2022/03/22 01:56:16;;;;;;;78.65;42.50;;;;;;;4.04;97.67;103161.16;5009114;28;20144;-72
2022/03/22 01:58:41;;;;;;;70.28;41.97;;;;;;;4.04;97.63;103152.44;5008840;28;20045;-72
2022/03/22 02:06:36;;;;;;;76.07;43.30;;;;;;;4.04;98.47;103150.69;5006187;28;20044;-72
2022/03/22 02:09:03;;;;;;;74.30;42.42;;;;;;;4.02;98.05;103157.63;5005415;28;20045;-72
2022/03/22 02:11:29;;;;;;;76.38;44.38;;;;;;;4.00;97.96;103161.97;4972158;28;20034;-71
2022/03/22 02:13:56;;;;;;;83.38;48.17;;;;;;;4.00;98.39;103158.47;5006072;28;20111;-72
2022/03/22 02:16:22;;;;;;;91.88;50.92;;;;;;;4.02;98.45;103151.50;5006051;28;20447;-72
2022/03/22 02:18:50;;;;;;;85.00;46.55;;;;;;;4.02;98.47;103146.25;4987114;28;20060;-71
2022/03/22 02:21:18;;;;;;;87.43;47.45;;;;;;;4.01;98.28;103141.88;4957311;28;20150;-71
2022/03/22 02:23:52;;;;;;;75.38;45.42;;;;;;;4.00;98.39;103141.00;4968693;28;20029;-71
2022/03/22 02:26:19;;;;;;;81.75;46.83;;;;;;;3.99;98.45;103146.22;4986886;28;20054;-71
2022/03/22 02:28:45;;;;;;;77.18;45.15;;;;;;;3.99;98.62;103138.34;4987711;28;20114;-71
2022/03/22 02:31:11;;;;;;;82.18;48.38;;;;;;;3.98;99.06;103142.69;4989051;28;20245;-72
2022/03/22 02:33:41;;;;;;;80.55;46.47;;;;;;;3.98;99.04;103144.44;4984205;28;20338;-71
2022/03/22 02:36:07;;;;;;;76.15;44.97;;;;;;;3.96;98.66;103133.06;5002069;28;20041;-71
2022/03/22 02:38:33;;;;;;;78.72;45.85;;;;;;;3.93;99.22;103137.38;4992392;28;20038;-72
2022/03/22 02:40:58;;;;;;;81.95;46.72;;;;;;;3.92;99.03;103138.22;4984994;28;20037;-71
2022/03/22 02:43:24;;;;;;;83.35;47.35;;;;;;;3.94;99.04;103135.63;4988531;28;20026;-71
2022/03/22 02:45:49;;;;;;;83.97;47.85;;;;;;;3.93;99.71;103134.75;4988473;28;20034;-72
2022/03/22 02:48:17;;;;;;;81.72;47.30;;;;;;;3.96;99.30;103133.94;4990754;28;20457;-71
2022/03/22 02:50:43;;;;;;;81.13;47.60;;;;;;;3.96;99.58;103133.94;4987687;28;20048;-72
2022/03/22 02:53:09;;;;;;;84.30;48.60;;;;;;;3.96;99.54;103140.91;4987646;28;20054;-71
2022/03/22 02:55:36;;;;;;;80.97;45.15;;;;;;;3.97;99.64;103142.69;4986694;28;20029;-71
2022/03/22 02:58:01;;;;;;;77.05;45.45;;;;;;;3.95;99.82;103142.66;4984368;28;20066;-71
2022/03/22 03:00:27;;;;;;;83.28;46.38;;;;;;;3.92;99.20;103142.59;4999424;28;20150;-71
2022/03/22 03:02:53;;;;;;;78.65;45.70;;;;;;;3.92;99.79;103130.38;5001214;28;20061;-72
2022/03/22 03:05:20;;;;;;;78.47;46.13;;;;;;;3.91;99.46;103136.47;4984302;28;20029;-72
2022/03/22 03:07:47;;;;;;;82.57;45.63;;;;;;;3.92;99.77;103140.84;4986022;28;20034;-72
2022/03/22 03:10:13;;;;;;;80.65;45.92;;;;;;;3.91;100.00;103136.47;4986584;28;20053;-72
2022/03/22 03:12:39;;;;;;;87.40;47.35;;;;;;;3.92;99.54;103138.22;4986635;28;20034;-72
2022/03/22 03:15:07;;;;;;;81.53;47.88;;;;;;;3.92;99.68;103138.22;4984438;28;20034;-72
2022/03/22 03:17:33;;;;;;;81.28;47.15;;;;;;;3.90;100.00;103139.94;4991479;28;20037;-72
2022/03/22 03:19:59;;;;;;;77.82;44.58;;;;;;;3.88;99.99;103149.50;5005873;28;20107;-72
2022/03/22 03:22:24;;;;;;;90.00;50.00;;;;;;;3.88;99.58;103146.88;5006120;28;20792;-72
2022/03/22 03:24:50;;;;;;;75.68;44.47;;;;;;;3.85;100.00;103146.81;4988473;28;20358;-72
2022/03/22 03:27:16;;;;;;;74.03;44.40;;;;;;;3.82;100.00;103141.53;5005067;28;20641;-72
2022/03/22 03:29:42;;;;;;;78.53;46.75;;;;;;;3.79;99.76;103146.69;5006452;28;20052;-72
2022/03/22 03:32:08;;;;;;;78.72;44.90;;;;;;;3.77;99.90;103141.41;5007636;28;20034;-72
2022/03/22 03:34:33;;;;;;;80.80;45.63;;;;;;;3.75;100.00;103139.63;5006959;28;20030;-72
2022/03/22 03:36:59;;;;;;;78.47;45.17;;;;;;;3.74;100.00;103149.22;5005998;28;20508;-72
2022/03/22 03:39:24;;;;;;;77.53;45.58;;;;;;;3.74;99.84;103146.63;5007188;28;20485;-72
2022/03/22 03:42:00;;;;;;;92.13;49.45;;;;;;;3.74;100.00;103148.34;5006628;28;20025;-72
2022/03/22 03:47:13;;;;;;;88.30;49.08;;;;;;;3.74;100.00;103148.34;5006845;28;20037;-72
2022/03/22 03:49:47;;;;;;;87.40;48.05;;;;;;;3.74;100.00;103145.72;5006069;28;20853;-73
2022/03/22 03:52:13;;;;;;;;;;;;;;;3.72;100.00;103144.81;4987229;28;20274;-73
2022/03/22 03:54:41;;;;;;;80.60;45.63;;;;;;;3.68;100.00;103146.50;4983770;28;19921;-72
2022/03/22 03:57:07;;;;;;;78.85;45.03;;;;;;;3.65;100.00;103155.16;4988278;28;20167;-72
2022/03/22 03:59:37;;;;;;;86.30;50.30;;;;;;;3.64;100.00;103152.50;4987591;28;20382;-72
2022/03/22 04:02:03;;;;;;;82.22;48.40;;;;;;;3.63;100.00;103156.88;4987842;28;20041;-72
2022/03/22 04:04:29;;;;;;;85.82;49.83;;;;;;;3.61;100.00;103157.69;5006528;28;20025;-72
2022/03/22 04:06:55;;;;;;;86.10;49.97;;;;;;;3.60;100.00;103161.16;4989196;28;20377;-72
2022/03/22 04:09:21;;;;;;;88.93;48.22;;;;;;;3.60;100.00;103167.28;5005790;28;20038;-72
2022/03/22 04:11:47;;;;;;;88.25;50.08;;;;;;;3.60;100.00;103162.03;4976683;28;20060;-72
2022/03/22 04:14:13;;;;;;;86.07;48.47;;;;;;;3.61;100.00;103165.56;5004649;28;20034;-72
2022/03/22 04:16:39;;;;;;;88.82;52.30;;;;;;;3.60;100.00;103166.41;5004600;28;20065;-72
2022/03/22 04:19:07;;;;;;;85.50;49.95;;;;;;;3.60;100.00;103163.78;4986086;28;20046;-72
2022/03/22 04:21:37;;;;;;;88.97;50.80;;;;;;;3.58;100.00;103174.22;5002900;28;20033;-72
2022/03/22 04:24:07;;;;;;;96.35;51.72;;;;;;;3.57;100.00;103172.47;4989096;28;20033;-72
2022/03/22 04:26:38;;;;;;;88.25;50.83;;;;;;;3.57;100.00;103167.22;5003207;28;20586;-72
2022/03/22 04:34:33;;;;;;;88.55;50.03;;;;;;;3.58;100.00;103174.22;5004035;28;20682;-72
2022/03/22 04:37:00;;;;;;;98.53;53.60;;;;;;;3.61;100.00;103178.66;5005588;28;20065;-72
2022/03/22 04:39:27;;;;;;;88.75;50.10;;;;;;;3.61;100.00;103169.06;4989474;28;20048;-72
2022/03/22 04:41:53;;;;;;;92.10;50.95;;;;;;;3.63;100.00;103167.34;4993515;28;20079;-72
2022/03/22 04:44:19;;;;;;;98.82;53.13;;;;;;;3.64;100.00;103166.50;5005315;28;20124;-72
2022/03/22 04:46:46;;;;;;;93.93;51.72;;;;;;;3.62;100.00;103168.22;4987094;28;20099;-72
2022/03/22 04:49:12;;;;;;;92.32;51.45;;;;;;;3.60;100.00;103162.03;4983745;28;20026;-71
2022/03/22 04:57:07;;;;;;;96.25;52.25;;;;;;;3.52;100.00;103166.25;5006085;28;20538;-71
2022/03/22 04:59:32;;;;;;;90.40;51.85;;;;;;;3.50;100.00;103178.44;5003490;28;20033;-71
2022/03/22 05:01:59;;;;;;;91.70;51.65;;;;;;;3.48;100.00;103177.53;5005309;28;20033;-72
2022/03/22 05:04:25;;;;;;;86.65;49.30;;;;;;;3.46;100.00;103173.97;5006745;28;20033;-72
2022/03/22 05:06:51;;;;;;;94.07;50.05;;;;;;;3.43;100.00;103174.78;5003039;28;20041;-71
2022/03/22 05:09:17;;;;;;;89.57;49.40;;;;;;;3.39;100.00;103176.44;4974510;28;20036;-72
2022/03/22 05:11:42;;;;;;;85.50;48.85;;;;;;;3.37;100.00;103178.16;5004580;28;20397;-72
2022/03/22 05:14:08;;;;;;;96.05;53.63;;;;;;;3.37;100.00;103182.50;4986236;28;20507;-71
2022/03/22 05:16:35;;;;;;;92.07;51.08;;;;;;;3.36;100.00;103179.00;4985379;28;20040;-71
2022/03/22 05:19:03;;;;;;;87.45;50.15;;;;;;;3.35;100.00;103181.59;5005780;28;20098;-71
2022/03/22 05:21:28;;;;;;;94.55;53.10;;;;;;;3.33;100.00;103184.16;4985709;28;20120;-71
2022/03/22 05:23:54;;;;;;;93.63;50.42;;;;;;;3.31;100.00;103188.50;4987155;28;20041;-72
2022/03/22 05:26:20;;;;;;;90.13;50.30;;;;;;;3.28;100.00;103183.19;5005676;28;20048;-71
2022/03/22 05:28:45;;;;;;;88.32;49.28;;;;;;;3.25;100.00;103189.25;4986777;28;20495;-71
2022/03/22 05:31:14;;;;;;;101.75;55.10;;;;;;;3.24;100.00;103183.97;4984446;28;20048;-72
2022/03/22 05:33:40;;;;;;;89.50;50.00;;;;;;;3.22;100.00;103185.66;5004183;28;20144;-71
2022/03/22 05:36:06;;;;;;;89.90;50.45;;;;;;;3.19;100.00;103188.19;5009658;28;20514;-72
2022/03/22 05:38:32;;;;;;;87.15;50.42;;;;;;;3.17;100.00;103189.91;4995633;28;20128;-72
2022/03/22 05:41:02;;;;;;;95.68;52.00;;;;;;;3.15;100.00;103199.47;4992303;28;20374;-71
2022/03/22 05:43:27;;;;;;;92.32;50.70;;;;;;;3.12;100.00;103193.28;5006348;28;21339;-71
2022/03/22 05:45:53;;;;;;;82.65;48.88;;;;;;;3.10;100.00;103191.47;5008986;28;20041;-71
2022/03/22 05:48:19;;;;;;;94.03;52.67;;;;;;;3.10;100.00;103194.09;4991612;28;20041;-72
2022/03/22 05:50:45;;;;;;;93.45;50.53;;;;;;;3.08;100.00;103196.69;4991297;28;20025;-72
2022/03/22 05:53:11;;;;;;;96.63;52.15;;;;;;;3.07;100.00;103197.56;4990324;28;20095;-71
2022/03/22 05:55:37;;;;;;;90.95;50.03;;;;;;;3.08;100.00;103195.81;5008309;28;20041;-72
2022/03/22 05:58:04;;;;;;;90.07;51.45;;;;;;;3.07;100.00;103199.28;4990640;28;21279;-72
2022/03/22 06:00:29;;;;;;;91.18;52.00;;;;;;;3.06;100.00;103198.38;5008028;28;20040;-71
2022/03/22 06:02:55;;;;;;;97.03;51.40;;;;;;;3.06;100.00;103208.84;5009193;28;20029;-71
2022/03/22 06:05:21;;;;;;;87.75;50.70;;;;;;;3.06;100.00;103197.50;5008708;28;20038;-72
2022/03/22 06:07:47;;;;;;;102.78;54.17;;;;;;;3.07;100.00;103213.25;4992050;28;20025;-72
2022/03/22 06:10:13;;;;;;;93.95;51.60;;;;;;;3.07;100.00;103202.78;5008026;28;20022;-72
2022/03/22 06:12:41;;;;;;;89.40;50.58;;;;;;;3.10;100.00;103213.31;5008401;28;20045;-72
2022/03/22 06:15:17;;;;;;;99.32;53.58;;;;;;;3.15;100.00;103215.19;5008744;28;20135;-72
2022/03/22 06:18:00;;;;;;;109.32;58.00;;;;;;;3.20;100.00;103211.81;5007394;28;20120;-72
2022/03/22 06:20:34;;;;;;;101.78;55.38;;;;;;;3.27;100.00;103210.19;4974213;28;20451;-72
2022/03/22 06:23:01;;;;;;;100.20;55.70;;;;;;;3.34;100.00;103212.16;5004806;28;20041;-71
2022/03/22 06:25:27;;;;;;;100.32;54.85;;;;;;;3.39;100.00;103220.97;5008124;28;20038;-72
2022/03/22 06:27:53;;;;;;;102.80;55.17;;;;;;;3.47;100.00;103223.75;5007681;28;20068;-71
2022/03/22 06:30:20;;;;;;;100.80;56.78;;;;;;;3.51;100.00;103224.72;4990290;28;21331;-71
2022/03/22 06:32:49;;;;;;;103.03;57.28;;;;;;;3.58;100.00;103230.97;4988907;28;20052;-72
2022/03/22 06:35:16;;;;;;;102.88;56.38;;;;;;;3.65;100.00;103232.91;5006650;28;20052;-72
2022/03/22 06:37:43;;;;;;;103.68;54.63;;;;;;;3.71;100.00;103237.38;5008051;28;20273;-72
2022/03/22 06:40:10;;;;;;;96.30;54.10;;;;;;;3.76;100.00;103234.00;4989663;28;20456;-72
2022/03/22 06:42:36;;;;;;;99.82;53.35;;;;;;;3.82;100.00;103238.50;5004934;28;20247;-72
2022/03/22 06:45:03;;;;;;;98.85;55.72;;;;;;;3.87;100.00;103239.47;4988207;28;20244;-72
2022/03/22 06:47:30;;;;;;;98.43;54.03;;;;;;;3.95;100.00;103239.63;4989570;28;20037;-71
2022/03/22 06:49:56;;;;;;;90.38;53.17;;;;;;;4.03;100.00;103248.53;5006146;28;20625;-72
2022/03/22 06:52:21;;;;;;;91.13;52.67;;;;;;;4.09;100.00;103245.19;5006946;28;20116;-71
2022/03/22 06:54:48;;;;;;;84.60;49.65;;;;;;;4.18;100.00;103249.69;5007767;28;20037;-72
2022/03/22 06:57:13;;;;;;;84.10;49.40;;;;;;;4.24;100.00;103247.19;4991109;28;20234;-72
2022/03/22 06:59:39;;;;;;;83.88;49.30;;;;;;;4.32;100.00;103249.97;5007399;28;20049;-72
2022/03/22 07:02:07;;;;;;;83.78;48.20;;;;;;;4.39;100.00;103249.25;5006307;28;20041;-72
2022/03/22 07:04:33;;;;;;;84.32;48.63;;;;;;;4.47;100.00;103254.66;5008054;28;20061;-71
2022/03/22 07:06:58;;;;;;;80.93;48.72;;;;;;;4.54;100.00;103255.63;4989158;28;20172;-72
2022/03/22 07:09:24;;;;;;;82.88;47.75;;;;;;;4.63;100.00;103253.16;4989890;28;20252;-72
2022/03/22 07:11:50;;;;;;;81.43;48.60;;;;;;;4.70;100.00;103254.19;4977824;28;20120;-72
2022/03/22 07:14:17;;;;;;;86.72;50.75;;;;;;;4.79;100.00;103258.72;5004870;28;20485;-72
2022/03/22 07:16:44;;;;;;;84.18;49.55;;;;;;;4.87;100.00;103258.00;5007405;28;20691;-72
2022/03/22 07:19:09;;;;;;;86.03;49.83;;;;;;;4.94;100.00;103258.06;5006674;28;20080;-72
2022/03/22 07:21:35;;;;;;;83.18;49.78;;;;;;;5.00;100.00;103253.81;5006473;28;20548;-72
2022/03/22 07:24:01;;;;;;;82.80;48.88;;;;;;;5.07;100.00;103253.94;5004530;28;20026;-72
2022/03/22 07:26:26;;;;;;;81.32;49.08;;;;;;;5.13;100.00;103257.50;5008209;28;20029;-72
2022/03/22 07:28:52;;;;;;;88.47;49.78;;;;;;;5.20;100.00;103261.13;5007423;28;20030;-71
2022/03/22 07:31:17;;;;;;;83.88;49.92;;;;;;;5.27;100.00;103256.84;5006667;28;20029;-71
2022/03/22 07:33:43;;;;;;;82.25;48.90;;;;;;;5.33;100.00;103263.97;4993774;28;20037;-72
2022/03/22 07:36:09;;;;;;;81.00;50.22;;;;;;;5.39;100.00;103267.56;4993325;28;20030;-71
2022/03/22 07:38:34;;;;;;;85.95;49.28;;;;;;;5.44;100.00;103270.25;4990297;28;20038;-72
2022/03/22 07:41:00;;;;;;;78.18;48.10;;;;;;;5.50;100.00;103267.72;4973225;28;20476;-71
2022/03/22 07:43:28;;;;;;;83.32;49.63;;;;;;;5.55;100.00;103273.94;4993425;28;20096;-71
2022/03/22 07:45:54;;;;;;;79.43;48.83;;;;;;;5.63;100.00;103271.41;5006819;28;20021;-71
2022/03/22 07:48:19;;;;;;;78.43;48.25;;;;;;;5.71;100.00;103275.03;4988616;28;20042;-71
2022/03/22 07:53:29;;;;;;;78.32;46.40;;;;;;;5.94;100.00;103277.09;5004438;28;20529;-71
2022/03/22 07:55:55;;;;;;;75.07;45.72;;;;;;;6.06;100.00;103268.50;5005336;28;20030;-71
2022/03/22 07:58:20;;;;;;;73.90;46.78;;;;;;;6.18;100.00;103274.78;4991460;28;20037;-71
2022/03/22 08:00:47;;;;;;;73.03;44.55;;;;;;;6.29;100.00;103267.00;5005908;28;20282;-71
2022/03/22 08:03:15;;;;;;;70.93;43.85;;;;;;;6.42;100.00;103273.31;5004918;28;20235;-71
2022/03/22 08:05:42;;;;;;;71.50;43.40;;;;;;;6.54;100.00;103275.19;4975553;28;20041;-71
2022/03/22 08:08:08;;;;;;;74.03;44.45;;;;;;;6.65;100.00;103276.19;5005477;28;20041;-77
2022/03/22 08:10:33;;;;;;;66.78;43.28;;;;;;;6.76;100.00;103273.66;5007332;28;20037;-73
2022/03/22 08:13:00;;;;;;;66.55;42.38;;;;;;;6.85;100.00;103276.34;5004692;28;20440;-73
2022/03/22 08:15:25;;;;;;;68.95;42.50;;;;;;;6.96;100.00;103280.84;4986813;28;20045;-73
2022/03/22 08:17:52;;;;;;;71.40;44.03;;;;;;;7.06;100.00;103278.31;5002128;28;20075;-73
2022/03/22 08:20:17;;;;;;;70.85;43.28;;;;;;;7.18;100.00;103280.16;4987027;28;20469;-74
2022/03/22 08:23:02;;;;;;;69.05;44.45;;;;;;;7.30;100.00;103281.13;5005518;28;20099;-74
2022/03/22 08:25:34;;;;;;;70.47;43.85;;;;;;;7.41;100.00;103278.56;5003134;28;20591;-74
2022/03/22 08:28:01;;;;;;;70.20;44.55;;;;;;;7.52;100.00;103273.38;4990103;28;20026;-74
2022/03/22 08:30:27;;;;;;;68.43;43.88;;;;;;;7.62;100.00;103277.81;5006137;28;20553;-75
2022/03/22 08:32:56;;;;;;;69.32;44.13;;;;;;;7.70;100.00;103278.75;5006118;28;20083;-73
2022/03/22 08:35:25;;;;;;;65.25;42.92;;;;;;;7.80;100.00;103276.16;4988972;28;20017;-76
2022/03/22 08:37:52;;;;;;;66.28;43.05;;;;;;;7.89;100.00;103278.84;4989554;28;20090;-73
2022/03/22 08:40:18;;;;;;;64.13;43.17;;;;;;;7.97;100.00;103282.41;5007199;28;20030;-72
2022/03/22 08:42:45;;;;;;;68.22;44.17;;;;;;;8.12;100.00;103288.63;5004031;28;20042;-73
2022/03/22 08:45:15;;;;;;;66.68;42.90;;;;;;;8.24;100.00;103286.00;4989260;28;20061;-73
2022/03/22 08:47:42;;;;;;;63.90;41.65;;;;;;;8.36;100.00;103284.28;5003786;28;21410;-73
2022/03/22 08:50:09;;;;;;;62.05;41.47;;;;;;;8.48;100.00;103281.69;5002237;28;20063;-73
2022/03/22 08:52:37;;;;;;;61.75;42.53;;;;;;;8.61;100.00;103284.41;4988051;28;20061;-73
2022/03/22 08:55:03;;;;;;;64.80;42.50;;;;;;;8.73;100.00;103272.97;5004203;28;20026;-73
2022/03/22 08:57:29;;;;;;;61.88;39.50;;;;;;;8.82;99.38;103271.22;5002726;28;20041;-73
2022/03/22 08:59:55;;;;;;;61.33;41.20;;;;;;;8.90;98.63;103265.06;4985681;28;20499;-72
2022/03/22 09:02:20;;;;;;;63.75;41.40;;;;;;;8.94;98.50;103267.69;5003183;28;20117;-72
2022/03/22 09:07:30;;;;;;;61.78;40.40;;;;;;;8.99;97.04;103270.31;5006697;28;20509;-72
2022/03/22 09:09:55;;;;;;;66.45;42.15;;;;;;;9.02;96.75;103264.16;5007577;28;20110;-73
2022/03/22 09:12:21;;;;;;;59.53;39.92;;;;;;;9.05;96.37;103278.25;5007688;28;20044;-73
2022/03/22 09:14:47;;;;;;;65.05;40.47;;;;;;;9.07;95.53;103270.34;5007716;28;20041;-72
2022/03/22 09:17:13;;;;;;;63.90;39.42;;;;;;;9.09;95.19;103272.09;5008033;28;20041;-73
2022/03/22 09:19:39;;;;;;;57.17;39.70;;;;;;;9.15;95.09;103270.34;5004059;28;20037;-73
2022/03/22 09:22:08;;;;;;;54.90;39.13;;;;;;;9.17;94.51;103268.56;5007081;28;20033;-72
2022/03/22 09:24:36;;;;;;;59.60;40.92;;;;;;;9.25;94.98;103274.72;5007480;28;20032;-72
2022/03/22 09:27:02;;;;;;;57.95;40.20;;;;;;;9.30;94.18;103272.97;5006482;28;20040;-72
2022/03/22 09:29:28;;;;;;;55.58;38.20;;;;;;;9.36;94.39;103272.97;5007714;28;20038;-73
2022/03/22 09:31:54;;;;;;;61.63;40.17;;;;;;;9.43;93.77;103272.94;5008010;28;20068;-72
2022/03/22 09:34:20;;;;;;;59.22;39.88;;;;;;;9.47;93.58;103278.22;5007519;28;20033;-75
2022/03/22 09:36:45;;;;;;;55.83;38.47;;;;;;;9.55;94.24;103272.94;5006645;28;20902;-74
2022/03/22 09:39:11;;;;;;;58.25;40.15;;;;;;;9.65;94.06;103279.94;5004496;28;20613;-73
2022/03/22 09:41:38;;;;;;;61.85;40.05;;;;;;;9.75;93.74;103290.53;5007417;28;20468;-74
2022/03/22 09:44:04;;;;;;;59.70;40.53;;;;;;;9.84;93.60;103282.53;5006945;28;20184;-73
2022/03/22 09:46:32;;;;;;;57.50;40.80;;;;;;;9.95;93.85;103286.91;5006680;28;20026;-73
2022/03/22 09:48:58;;;;;;;60.40;40.63;;;;;;;10.05;93.77;103283.34;4975006;28;20518;-75
2022/03/22 09:54:08;;;;;;;55.88;38.15;;;;;;;10.26;93.85;103279.72;4994946;28;20597;-75
2022/03/22 09:56:34;;;;;;;56.72;39.35;;;;;;;10.34;93.44;103277.03;4992662;28;20034;-74
2022/03/22 09:59:02;;;;;;;58.28;38.72;;;;;;;10.41;93.15;103280.53;5008409;28;20985;-75
2022/03/22 10:01:28;;;;;;;59.25;40.03;;;;;;;10.48;93.09;103276.09;5007650;28;20119;-74
2022/03/22 10:04:06;;;;;;;55.92;38.75;;;;;;;10.56;92.75;103280.47;5008011;28;20144;-74
2022/03/22 10:06:33;;;;;;;59.90;38.03;;;;;;;10.65;92.35;103282.19;5008257;28;20232;-74
2022/03/22 10:08:59;;;;;;;56.75;39.22;;;;;;;10.72;92.19;103273.28;5006685;28;20064;-74
2022/03/22 10:11:39;;;;;;;57.22;37.55;;;;;;;10.78;91.90;103271.50;5007432;28;20863;-75
2022/03/22 10:14:05;;;;;;;56.53;37.22;;;;;;;10.85;91.74;103271.41;4990545;28;20120;-73
2022/03/22 10:16:31;;;;;;;54.58;37.58;;;;;;;10.94;91.49;103269.56;4990244;28;21852;-74
2022/03/22 10:18:56;;;;;;;55.13;38.30;;;;;;;10.99;91.20;103267.78;5007216;28;20064;-74
2022/03/22 10:21:22;;;;;;;52.92;37.55;;;;;;;11.04;90.87;103278.34;4989023;28;20037;-74
2022/03/22 10:23:55;;;;;;;54.55;37.65;;;;;;;11.12;90.31;103274.72;5008165;28;20044;-74
2022/03/22 10:26:21;;;;;;;57.28;37.20;;;;;;;11.16;89.85;103270.28;5005975;28;20698;-74
2022/03/22 10:28:54;;;;;;;52.92;36.15;;;;;;;11.22;89.80;103267.56;5007803;28;20033;-73
2022/03/22 10:31:32;;;;;;;51.13;35.85;;;;;;;11.28;89.26;103264.00;5007705;28;20092;-72
2022/03/22 10:33:59;;;;;;;54.75;37.13;;;;;;;11.32;89.30;103257.75;5008149;28;20033;-73
2022/03/22 10:36:25;;;;;;;54.20;36.13;;;;;;;11.37;88.66;103258.59;5008612;28;20489;-73
2022/03/22 10:38:59;;;;;;;50.63;34.85;;;;;;;11.44;88.10;103255.88;5008588;28;21447;-73
2022/03/22 10:41:30;;;;;;;49.50;34.40;;;;;;;11.48;87.86;103255.81;5007181;28;20966;-73
2022/03/22 10:44:02;;;;;;;52.15;35.00;;;;;;;11.51;87.82;103253.13;5009084;28;20108;-73
2022/03/22 10:46:28;;;;;;;46.00;33.22;;;;;;;11.56;87.71;103255.75;5009418;28;21615;-73
2022/03/22 10:49:08;;;;;;;44.88;33.38;;;;;;;11.63;86.83;103253.91;4991836;28;20041;-74
2022/03/22 10:51:42;;;;;;;51.80;33.92;;;;;;;11.68;86.81;103255.59;5004173;28;20041;-73
2022/03/22 10:54:13;;;;;;;46.47;32.17;;;;;;;11.76;86.58;103254.66;5005129;28;20037;-73
2022/03/22 10:56:55;;;;;;;48.80;33.25;;;;;;;11.82;86.01;103254.53;4986307;28;20486;-73
2022/03/22 10:59:26;;;;;;;48.92;33.53;;;;;;;11.88;85.86;103261.56;4989116;28;20037;-72
2022/03/22 11:01:55;;;;;;;48.42;33.50;;;;;;;11.95;86.05;103261.47;4986599;28;20090;-71
2022/03/22 11:04:22;;;;;;;47.85;32.17;;;;;;;12.03;85.78;103264.06;4986660;28;20104;-71
2022/03/22 11:06:48;;;;;;;50.00;32.35;;;;;;;12.07;85.43;103265.78;5002902;28;20510;-72
2022/03/22 11:09:20;;;;;;;47.90;32.58;;;;;;;12.17;85.00;103263.00;4989166;28;20029;-70
2022/03/22 11:11:46;;;;;;;47.50;33.13;;;;;;;12.30;84.65;103253.06;5005029;28;20495;-70
2022/03/22 11:14:14;;;;;;;48.97;31.35;;;;;;;12.38;84.56;103258.28;5000634;28;20745;-79
2022/03/22 11:16:41;;;;;;;44.85;31.42;;;;;;;12.44;84.36;103261.75;4985295;28;20048;-74
2022/03/22 11:19:08;;;;;;;46.22;32.33;;;;;;;12.49;83.96;103253.69;4997561;28;20405;-74
2022/03/22 11:21:34;;;;;;;45.10;31.63;;;;;;;12.55;83.98;103245.63;5001552;28;20362;-74
2022/03/22 11:24:10;;;;;;;46.75;30.55;;;;;;;12.61;83.56;103242.00;5000032;28;20103;-74
2022/03/22 11:26:40;;;;;;;43.17;30.80;;;;;;;12.67;83.28;103246.31;4987534;28;20053;-73
2022/03/22 11:29:09;;;;;;;45.83;30.98;;;;;;;12.72;83.16;103236.50;4986403;28;21453;-75
2022/03/22 11:31:34;;;;;;;39.53;29.33;;;;;;;12.81;82.23;103225.69;5005629;28;20708;-74
2022/03/22 11:34:09;;;;;;;42.58;29.60;;;;;;;12.90;81.91;103230.00;5005560;28;20123;-74
2022/03/22 11:36:41;;;;;;;47.67;30.83;;;;;;;12.92;81.63;103232.63;4989368;28;20040;-75
2022/03/22 11:39:07;;;;;;;40.65;28.27;;;;;;;12.93;81.62;103229.06;4988958;28;20049;-74